sensor_id;sensor_type;location;lat;lon;timestamp;temperature;humidity
31369;DHT22;18004;48.416;10.066;2022-11-12T00:01:24;6.90;99.90
31369;DHT22;18004;48.416;10.066;2022-11-12T00:03:50;6.90;99.90
31369;DHT22;18004;48.416;10.066;2022-11-12T00:06:16;6.90;99.90
31369;DHT22;18004;48.416;10.066;2022-11-12T00:08:41;6.90;99.90
31369;DHT22;18004;48.416;10.066;2022-11-12T00:11:07;7.00;99.90
31369;DHT22;18004;48.416;10.066;2022-11-12T00:13:33;6.90;99.90
31369;DHT22;18004;48.416;10.066;2022-11-12T00:15:58;6.90;99.90
31369;DHT22;18004;48.416;10.066;2022-11-12T00:18:24;6.80;99.90
31369;DHT22;18004;48.416;10.066;2022-11-12T00:20:50;6.70;99.90
31369;DHT22;18004;48.416;10.066;2022-11-12T00:23:15;6.70;99.90
31369;DHT22;18004;48.416;10.066;2022-11-12T00:25:41;6.80;99.90
31369;DHT22;18004;48.416;10.066;2022-11-12T00:28:07;6.80;99.90
31369;DHT22;18004;48.416;10.066;2022-11-12T00:30:36;6.70;99.90
31369;DHT22;18004;48.416;10.066;2022-11-12T00:33:02;6.80;99.90
31369;DHT22;18004;48.416;10.066;2022-11-12T00:35:30;6.80;99.90
31369;DHT22;18004;48.416;10.066;2022-11-12T00:37:56;6.80;99.90
31369;DHT22;18004;48.416;10.066;2022-11-12T00:40:22;6.80;99.90
31369;DHT22;18004;48.416;10.066;2022-11-12T00:42:49;6.80;99.90
31369;DHT22;18004;48.416;10.066;2022-11-12T00:45:14;6.70;99.90
31369;DHT22;18004;48.416;10.066;2022-11-12T00:47:40;6.80;99.90
31369;DHT22;18004;48.416;10.066;2022-11-12T00:50:06;6.80;99.90
31369;DHT22;18004;48.416;10.066;2022-11-12T00:52:32;6.70;99.90
31369;DHT22;18004;48.416;10.066;2022-11-12T00:54:57;6.70;99.90
31369;DHT22;18004;48.416;10.066;2022-11-12T00:57:23;6.70;99.90
31369;DHT22;18004;48.416;10.066;2022-11-12T00:59:48;6.70;99.90
31369;DHT22;18004;48.416;10.066;2022-11-12T01:02:14;6.70;99.90
31369;DHT22;18004;48.416;10.066;2022-11-12T01:04:40;6.70;99.90
31369;DHT22;18004;48.416;10.066;2022-11-12T01:07:05;6.80;99.90
31369;DHT22;18004;48.416;10.066;2022-11-12T01:09:31;6.70;99.90
31369;DHT22;18004;48.416;10.066;2022-11-12T01:11:56;6.80;99.90
31369;DHT22;18004;48.416;10.066;2022-11-12T01:14:22;6.80;99.90
31369;DHT22;18004;48.416;10.066;2022-11-12T01:16:48;6.70;99.90
31369;DHT22;18004;48.416;10.066;2022-11-12T01:19:13;6.70;99.90
31369;DHT22;18004;48.416;10.066;2022-11-12T01:21:40;6.70;99.90
31369;DHT22;18004;48.416;10.066;2022-11-12T01:24:06;6.70;99.90
31369;DHT22;18004;48.416;10.066;2022-11-12T01:26:32;6.70;99.90
31369;DHT22;18004;48.416;10.066;2022-11-12T01:28:57;6.70;99.90
31369;DHT22;18004;48.416;10.066;2022-11-12T01:31:27;6.80;99.90
31369;DHT22;18004;48.416;10.066;2022-11-12T01:33:54;6.80;99.90
31369;DHT22;18004;48.416;10.066;2022-11-12T01:36:20;6.70;99.90
31369;DHT22;18004;48.416;10.066;2022-11-12T01:38:46;6.70;99.90
31369;DHT22;18004;48.416;10.066;2022-11-12T01:41:13;6.70;99.90
31369;DHT22;18004;48.416;10.066;2022-11-12T01:43:39;6.70;99.90
31369;DHT22;18004;48.416;10.066;2022-11-12T01:46:09;6.70;99.90
31369;DHT22;18004;48.416;10.066;2022-11-12T01:48:38;6.60;99.90
31369;DHT22;18004;48.416;10.066;2022-11-12T01:51:08;6.60;99.90
31369;DHT22;18004;48.416;10.066;2022-11-12T01:53:37;6.50;99.90
31369;DHT22;18004;48.416;10.066;2022-11-12T01:56:04;6.50;99.90
31369;DHT22;18004;48.416;10.066;2022-11-12T01:58:30;6.60;99.90
31369;DHT22;18004;48.416;10.066;2022-11-12T02:00:57;6.50;99.90
31369;DHT22;18004;48.416;10.066;2022-11-12T02:03:23;6.50;99.90
31369;DHT22;18004;48.416;10.066;2022-11-12T02:05:53;6.50;99.90
31369;DHT22;18004;48.416;10.066;2022-11-12T02:08:21;6.60;99.90
31369;DHT22;18004;48.416;10.066;2022-11-12T02:10:48;6.50;99.90
31369;DHT22;18004;48.416;10.066;2022-11-12T02:13:14;6.40;99.90
31369;DHT22;18004;48.416;10.066;2022-11-12T02:15:58;6.40;99.90
31369;DHT22;18004;48.416;10.066;2022-11-12T02:18:24;6.50;99.90
31369;DHT22;18004;48.416;10.066;2022-11-12T02:20:56;6.50;99.90
31369;DHT22;18004;48.416;10.066;2022-11-12T02:23:22;6.40;99.90
31369;DHT22;18004;48.416;10.066;2022-11-12T02:25:48;6.40;99.90
31369;DHT22;18004;48.416;10.066;2022-11-12T02:28:13;6.50;99.90
31369;DHT22;18004;48.416;10.066;2022-11-12T02:30:41;6.50;99.90
31369;DHT22;18004;48.416;10.066;2022-11-12T02:33:07;6.50;99.90
31369;DHT22;18004;48.416;10.066;2022-11-12T02:35:32;6.40;99.90
31369;DHT22;18004;48.416;10.066;2022-11-12T02:37:58;6.40;99.90
31369;DHT22;18004;48.416;10.066;2022-11-12T02:40:24;6.40;99.90
31369;DHT22;18004;48.416;10.066;2022-11-12T02:42:49;6.40;99.90
31369;DHT22;18004;48.416;10.066;2022-11-12T02:45:15;6.40;99.90
31369;DHT22;18004;48.416;10.066;2022-11-12T02:47:44;6.40;99.90
31369;DHT22;18004;48.416;10.066;2022-11-12T02:50:10;6.40;99.90
31369;DHT22;18004;48.416;10.066;2022-11-12T02:52:35;6.40;99.90
31369;DHT22;18004;48.416;10.066;2022-11-12T02:55:01;6.40;99.90
31369;DHT22;18004;48.416;10.066;2022-11-12T02:57:27;6.40;99.90
31369;DHT22;18004;48.416;10.066;2022-11-12T02:59:54;6.30;99.90
31369;DHT22;18004;48.416;10.066;2022-11-12T03:02:20;6.30;99.90
31369;DHT22;18004;48.416;10.066;2022-11-12T03:04:45;6.30;99.90
31369;DHT22;18004;48.416;10.066;2022-11-12T03:07:11;6.40;99.90
31369;DHT22;18004;48.416;10.066;2022-11-12T03:09:37;6.40;99.90
31369;DHT22;18004;48.416;10.066;2022-11-12T03:12:02;6.40;99.90
31369;DHT22;18004;48.416;10.066;2022-11-12T03:14:28;6.30;99.90
31369;DHT22;18004;48.416;10.066;2022-11-12T03:16:54;6.20;99.90
31369;DHT22;18004;48.416;10.066;2022-11-12T03:19:19;6.20;99.90
31369;DHT22;18004;48.416;10.066;2022-11-12T03:21:45;6.20;99.90
31369;DHT22;18004;48.416;10.066;2022-11-12T03:24:10;6.20;99.90
31369;DHT22;18004;48.416;10.066;2022-11-12T03:26:36;6.20;99.90
31369;DHT22;18004;48.416;10.066;2022-11-12T03:29:02;6.20;99.90
31369;DHT22;18004;48.416;10.066;2022-11-12T03:31:28;6.20;99.90
31369;DHT22;18004;48.416;10.066;2022-11-12T03:33:53;6.20;99.90
31369;DHT22;18004;48.416;10.066;2022-11-12T03:36:19;6.20;99.90
31369;DHT22;18004;48.416;10.066;2022-11-12T03:38:44;6.20;99.90
31369;DHT22;18004;48.416;10.066;2022-11-12T03:41:10;6.20;99.90
31369;DHT22;18004;48.416;10.066;2022-11-12T03:43:36;6.20;99.90
31369;DHT22;18004;48.416;10.066;2022-11-12T03:46:01;6.20;99.90
31369;DHT22;18004;48.416;10.066;2022-11-12T03:48:27;6.20;99.90
31369;DHT22;18004;48.416;10.066;2022-11-12T03:50:56;6.20;99.90
31369;DHT22;18004;48.416;10.066;2022-11-12T03:53:22;6.20;99.90
31369;DHT22;18004;48.416;10.066;2022-11-12T03:55:47;6.20;99.90
31369;DHT22;18004;48.416;10.066;2022-11-12T03:58:13;6.20;99.90
31369;DHT22;18004;48.416;10.066;2022-11-12T04:00:39;6.10;99.90
31369;DHT22;18004;48.416;10.066;2022-11-12T04:03:04;6.10;99.90
31369;DHT22;18004;48.416;10.066;2022-11-12T04:05:30;6.00;99.90
31369;DHT22;18004;48.416;10.066;2022-11-12T04:08:15;6.00;99.90
31369;DHT22;18004;48.416;10.066;2022-11-12T04:11:00;6.10;99.90
31369;DHT22;18004;48.416;10.066;2022-11-12T04:13:26;6.10;99.90
31369;DHT22;18004;48.416;10.066;2022-11-12T04:16:02;6.20;99.90
31369;DHT22;18004;48.416;10.066;2022-11-12T04:18:47;6.10;99.90
31369;DHT22;18004;48.416;10.066;2022-11-12T04:24:23;5.70;99.90
31369;DHT22;18004;48.416;10.066;2022-11-12T04:27:09;5.70;99.90
31369;DHT22;18004;48.416;10.066;2022-11-12T04:29:35;5.90;99.90
31369;DHT22;18004;48.416;10.066;2022-11-12T04:32:19;5.90;99.90
31369;DHT22;18004;48.416;10.066;2022-11-12T04:34:45;5.90;99.90
31369;DHT22;18004;48.416;10.066;2022-11-12T04:37:11;5.90;99.90
31369;DHT22;18004;48.416;10.066;2022-11-12T04:39:36;5.70;99.90
31369;DHT22;18004;48.416;10.066;2022-11-12T04:42:02;5.60;99.90
31369;DHT22;18004;48.416;10.066;2022-11-12T04:44:47;5.60;99.90
31369;DHT22;18004;48.416;10.066;2022-11-12T04:47:29;5.70;99.90
31369;DHT22;18004;48.416;10.066;2022-11-12T04:49:55;5.60;99.90
31369;DHT22;18004;48.416;10.066;2022-11-12T04:52:21;5.60;99.90
31369;DHT22;18004;48.416;10.066;2022-11-12T04:54:46;5.70;99.90
31369;DHT22;18004;48.416;10.066;2022-11-12T04:57:12;5.70;99.90
31369;DHT22;18004;48.416;10.066;2022-11-12T04:59:38;5.80;99.90
31369;DHT22;18004;48.416;10.066;2022-11-12T05:02:04;5.90;99.90
31369;DHT22;18004;48.416;10.066;2022-11-12T05:04:29;5.90;99.90
31369;DHT22;18004;48.416;10.066;2022-11-12T05:06:55;6.00;99.90
31369;DHT22;18004;48.416;10.066;2022-11-12T05:09:22;5.90;99.90
31369;DHT22;18004;48.416;10.066;2022-11-12T05:11:48;5.90;99.90
31369;DHT22;18004;48.416;10.066;2022-11-12T05:14:14;5.90;99.90
31369;DHT22;18004;48.416;10.066;2022-11-12T05:16:40;5.90;99.90
31369;DHT22;18004;48.416;10.066;2022-11-12T05:19:06;5.90;99.90
31369;DHT22;18004;48.416;10.066;2022-11-12T05:21:31;5.90;99.90
31369;DHT22;18004;48.416;10.066;2022-11-12T05:24:16;5.90;99.90
31369;DHT22;18004;48.416;10.066;2022-11-12T05:26:41;6.00;99.90
31369;DHT22;18004;48.416;10.066;2022-11-12T05:29:07;6.00;99.90
31369;DHT22;18004;48.416;10.066;2022-11-12T05:31:32;6.00;99.90
31369;DHT22;18004;48.416;10.066;2022-11-12T05:33:58;6.00;99.90
31369;DHT22;18004;48.416;10.066;2022-11-12T05:36:24;5.90;99.90
31369;DHT22;18004;48.416;10.066;2022-11-12T05:38:49;5.90;99.90
31369;DHT22;18004;48.416;10.066;2022-11-12T05:41:18;6.00;99.90
31369;DHT22;18004;48.416;10.066;2022-11-12T05:43:43;6.00;99.90
31369;DHT22;18004;48.416;10.066;2022-11-12T05:46:09;6.00;99.90
31369;DHT22;18004;48.416;10.066;2022-11-12T05:48:35;6.00;99.90
31369;DHT22;18004;48.416;10.066;2022-11-12T05:51:00;5.90;99.90
31369;DHT22;18004;48.416;10.066;2022-11-12T05:53:26;5.90;99.90
31369;DHT22;18004;48.416;10.066;2022-11-12T05:55:52;5.90;99.90
31369;DHT22;18004;48.416;10.066;2022-11-12T05:58:17;5.90;99.90
31369;DHT22;18004;48.416;10.066;2022-11-12T06:00:43;5.90;99.90
31369;DHT22;18004;48.416;10.066;2022-11-12T06:03:09;5.90;99.90
31369;DHT22;18004;48.416;10.066;2022-11-12T06:05:35;5.90;99.90
31369;DHT22;18004;48.416;10.066;2022-11-12T06:08:01;5.90;99.90
31369;DHT22;18004;48.416;10.066;2022-11-12T06:10:28;5.90;99.90
31369;DHT22;18004;48.416;10.066;2022-11-12T06:12:54;5.90;99.90
31369;DHT22;18004;48.416;10.066;2022-11-12T06:15:20;5.90;99.90
31369;DHT22;18004;48.416;10.066;2022-11-12T06:17:45;5.90;99.90
31369;DHT22;18004;48.416;10.066;2022-11-12T06:20:11;5.90;99.90
31369;DHT22;18004;48.416;10.066;2022-11-12T06:22:37;6.00;99.90
31369;DHT22;18004;48.416;10.066;2022-11-12T06:25:03;6.00;99.90
31369;DHT22;18004;48.416;10.066;2022-11-12T06:27:29;6.00;99.90
31369;DHT22;18004;48.416;10.066;2022-11-12T06:29:54;6.00;99.90
31369;DHT22;18004;48.416;10.066;2022-11-12T06:32:20;5.90;99.90
31369;DHT22;18004;48.416;10.066;2022-11-12T06:34:45;5.90;99.90
31369;DHT22;18004;48.416;10.066;2022-11-12T06:37:11;5.90;99.90
31369;DHT22;18004;48.416;10.066;2022-11-12T06:39:37;5.90;99.90
31369;DHT22;18004;48.416;10.066;2022-11-12T06:42:02;5.80;99.90
31369;DHT22;18004;48.416;10.066;2022-11-12T06:44:28;5.90;99.90
31369;DHT22;18004;48.416;10.066;2022-11-12T06:46:53;5.90;99.90
31369;DHT22;18004;48.416;10.066;2022-11-12T06:49:22;5.90;99.90
31369;DHT22;18004;48.416;10.066;2022-11-12T06:51:50;5.90;99.90
31369;DHT22;18004;48.416;10.066;2022-11-12T06:54:16;6.00;99.90
31369;DHT22;18004;48.416;10.066;2022-11-12T06:56:42;6.00;99.90
31369;DHT22;18004;48.416;10.066;2022-11-12T06:59:07;6.00;99.90
31369;DHT22;18004;48.416;10.066;2022-11-12T07:01:33;6.00;99.90
31369;DHT22;18004;48.416;10.066;2022-11-12T07:03:59;6.00;99.90
31369;DHT22;18004;48.416;10.066;2022-11-12T07:06:25;6.00;99.90
31369;DHT22;18004;48.416;10.066;2022-11-12T07:08:50;6.00;99.90
31369;DHT22;18004;48.416;10.066;2022-11-12T07:11:19;6.00;99.90
31369;DHT22;18004;48.416;10.066;2022-11-12T07:13:45;6.00;99.90
31369;DHT22;18004;48.416;10.066;2022-11-12T07:16:12;5.90;99.90
31369;DHT22;18004;48.416;10.066;2022-11-12T07:18:38;5.90;99.90
31369;DHT22;18004;48.416;10.066;2022-11-12T07:21:07;5.90;99.90
31369;DHT22;18004;48.416;10.066;2022-11-12T07:23:34;6.00;99.90
31369;DHT22;18004;48.416;10.066;2022-11-12T07:26:04;5.90;99.90
31369;DHT22;18004;48.416;10.066;2022-11-12T07:28:30;6.00;99.90
31369;DHT22;18004;48.416;10.066;2022-11-12T07:30:56;5.90;99.90
31369;DHT22;18004;48.416;10.066;2022-11-12T07:33:22;5.90;99.90
31369;DHT22;18004;48.416;10.066;2022-11-12T07:35:48;6.00;99.90
31369;DHT22;18004;48.416;10.066;2022-11-12T07:38:13;5.90;99.90
31369;DHT22;18004;48.416;10.066;2022-11-12T07:40:39;5.90;99.90
31369;DHT22;18004;48.416;10.066;2022-11-12T07:43:04;5.80;99.90
31369;DHT22;18004;48.416;10.066;2022-11-12T07:45:30;5.80;99.90
31369;DHT22;18004;48.416;10.066;2022-11-12T07:47:59;5.80;99.90
31369;DHT22;18004;48.416;10.066;2022-11-12T07:50:24;5.80;99.90
31369;DHT22;18004;48.416;10.066;2022-11-12T07:52:50;5.90;99.90
31369;DHT22;18004;48.416;10.066;2022-11-12T07:55:16;5.90;99.90
31369;DHT22;18004;48.416;10.066;2022-11-12T07:57:41;5.90;99.90
31369;DHT22;18004;48.416;10.066;2022-11-12T08:00:07;5.90;99.90
31369;DHT22;18004;48.416;10.066;2022-11-12T08:02:33;5.80;99.90
31369;DHT22;18004;48.416;10.066;2022-11-12T08:04:58;5.80;99.90
31369;DHT22;18004;48.416;10.066;2022-11-12T08:07:24;5.90;99.90
31369;DHT22;18004;48.416;10.066;2022-11-12T08:09:50;6.00;99.90
31369;DHT22;18004;48.416;10.066;2022-11-12T08:12:15;6.00;99.90
31369;DHT22;18004;48.416;10.066;2022-11-12T08:14:41;6.10;99.90
31369;DHT22;18004;48.416;10.066;2022-11-12T08:17:07;6.10;99.90
31369;DHT22;18004;48.416;10.066;2022-11-12T08:19:32;6.10;99.90
31369;DHT22;18004;48.416;10.066;2022-11-12T08:21:58;6.00;99.90
31369;DHT22;18004;48.416;10.066;2022-11-12T08:24:24;6.10;99.90
31369;DHT22;18004;48.416;10.066;2022-11-12T08:26:49;6.10;99.90
31369;DHT22;18004;48.416;10.066;2022-11-12T08:29:15;6.10;99.90
31369;DHT22;18004;48.416;10.066;2022-11-12T08:31:41;6.10;99.90
31369;DHT22;18004;48.416;10.066;2022-11-12T08:34:06;6.00;99.90
31369;DHT22;18004;48.416;10.066;2022-11-12T08:36:38;6.00;99.90
31369;DHT22;18004;48.416;10.066;2022-11-12T08:39:05;6.00;99.90
31369;DHT22;18004;48.416;10.066;2022-11-12T08:41:31;6.00;99.90
31369;DHT22;18004;48.416;10.066;2022-11-12T08:43:57;6.00;99.90
31369;DHT22;18004;48.416;10.066;2022-11-12T08:46:23;6.10;99.90
31369;DHT22;18004;48.416;10.066;2022-11-12T08:48:48;6.00;99.90
31369;DHT22;18004;48.416;10.066;2022-11-12T08:51:14;6.00;99.90
31369;DHT22;18004;48.416;10.066;2022-11-12T08:53:40;6.10;99.90
31369;DHT22;18004;48.416;10.066;2022-11-12T08:56:05;6.20;99.90
31369;DHT22;18004;48.416;10.066;2022-11-12T08:58:31;6.00;99.90
31369;DHT22;18004;48.416;10.066;2022-11-12T09:00:56;6.00;99.90
31369;DHT22;18004;48.416;10.066;2022-11-12T09:03:27;6.00;99.90
31369;DHT22;18004;48.416;10.066;2022-11-12T09:05:53;6.00;99.90
31369;DHT22;18004;48.416;10.066;2022-11-12T09:08:23;6.10;99.90
31369;DHT22;18004;48.416;10.066;2022-11-12T09:10:49;6.10;99.90
31369;DHT22;18004;48.416;10.066;2022-11-12T09:13:15;6.10;99.90
31369;DHT22;18004;48.416;10.066;2022-11-12T09:15:44;6.20;99.90
31369;DHT22;18004;48.416;10.066;2022-11-12T09:18:11;6.20;99.90
31369;DHT22;18004;48.416;10.066;2022-11-12T09:20:37;6.20;99.90
31369;DHT22;18004;48.416;10.066;2022-11-12T09:23:07;6.30;99.90
31369;DHT22;18004;48.416;10.066;2022-11-12T09:25:33;6.30;99.90
31369;DHT22;18004;48.416;10.066;2022-11-12T09:28:08;6.30;99.90
31369;DHT22;18004;48.416;10.066;2022-11-12T09:30:35;6.40;99.90
31369;DHT22;18004;48.416;10.066;2022-11-12T09:33:01;6.50;99.90
31369;DHT22;18004;48.416;10.066;2022-11-12T09:35:26;6.50;99.90
31369;DHT22;18004;48.416;10.066;2022-11-12T09:37:52;6.50;99.90
31369;DHT22;18004;48.416;10.066;2022-11-12T09:40:18;6.50;99.90
31369;DHT22;18004;48.416;10.066;2022-11-12T09:42:45;6.50;99.90
31369;DHT22;18004;48.416;10.066;2022-11-12T09:45:21;6.50;99.90
31369;DHT22;18004;48.416;10.066;2022-11-12T09:47:53;6.50;99.90
31369;DHT22;18004;48.416;10.066;2022-11-12T09:50:21;6.60;99.90
31369;DHT22;18004;48.416;10.066;2022-11-12T09:52:50;6.60;99.90
31369;DHT22;18004;48.416;10.066;2022-11-12T09:55:28;6.60;99.90
31369;DHT22;18004;48.416;10.066;2022-11-12T09:57:55;6.70;99.90
31369;DHT22;18004;48.416;10.066;2022-11-12T10:00:20;6.70;99.90
31369;DHT22;18004;48.416;10.066;2022-11-12T10:02:50;6.70;99.90
31369;DHT22;18004;48.416;10.066;2022-11-12T10:07:55;6.60;99.90
31369;DHT22;18004;48.416;10.066;2022-11-12T10:18:39;6.90;99.90
31369;DHT22;18004;48.416;10.066;2022-11-12T10:23:48;6.90;99.90
31369;DHT22;18004;48.416;10.066;2022-11-12T10:26:15;6.80;99.90
31369;DHT22;18004;48.416;10.066;2022-11-12T10:31:11;6.90;99.90
31369;DHT22;18004;48.416;10.066;2022-11-12T10:33:38;6.80;99.90
31369;DHT22;18004;48.416;10.066;2022-11-12T10:36:19;6.90;99.90
31369;DHT22;18004;48.416;10.066;2022-11-12T10:38:47;7.00;99.90
31369;DHT22;18004;48.416;10.066;2022-11-12T10:41:20;7.10;99.90
31369;DHT22;18004;48.416;10.066;2022-11-12T10:43:53;7.00;99.90
31369;DHT22;18004;48.416;10.066;2022-11-12T10:48:55;7.00;99.90
31369;DHT22;18004;48.416;10.066;2022-11-12T10:51:26;7.00;99.90
31369;DHT22;18004;48.416;10.066;2022-11-12T10:53:52;7.20;99.90
31369;DHT22;18004;48.416;10.066;2022-11-12T11:01:34;6.90;99.90
31369;DHT22;18004;48.416;10.066;2022-11-12T11:04:00;7.10;99.90
31369;DHT22;18004;48.416;10.066;2022-11-12T11:06:25;7.20;99.90
31369;DHT22;18004;48.416;10.066;2022-11-12T11:08:52;7.40;99.90
31369;DHT22;18004;48.416;10.066;2022-11-12T11:11:19;7.40;99.90
31369;DHT22;18004;48.416;10.066;2022-11-12T11:13:46;7.40;99.90
31369;DHT22;18004;48.416;10.066;2022-11-12T11:16:13;7.40;99.90
31369;DHT22;18004;48.416;10.066;2022-11-12T11:18:40;7.40;99.90
31369;DHT22;18004;48.416;10.066;2022-11-12T11:26:26;7.50;99.90
31369;DHT22;18004;48.416;10.066;2022-11-12T11:31:36;7.60;99.90
31369;DHT22;18004;48.416;10.066;2022-11-12T11:34:11;7.50;99.90
31369;DHT22;18004;48.416;10.066;2022-11-12T11:37:23;7.50;99.90
31369;DHT22;18004;48.416;10.066;2022-11-12T11:42:06;7.60;99.90
31369;DHT22;18004;48.416;10.066;2022-11-12T11:44:48;7.40;99.90
31369;DHT22;18004;48.416;10.066;2022-11-12T11:47:34;7.40;99.90
31369;DHT22;18004;48.416;10.066;2022-11-12T11:55:35;7.30;99.90
31369;DHT22;18004;48.416;10.066;2022-11-12T12:00:29;7.40;99.90
31369;DHT22;18004;48.416;10.066;2022-11-12T12:08:32;7.40;99.90
31369;DHT22;18004;48.416;10.066;2022-11-12T12:11:02;7.40;99.90
31369;DHT22;18004;48.416;10.066;2022-11-12T12:21:19;7.10;99.90
31369;DHT22;18004;48.416;10.066;2022-11-12T12:23:49;7.10;99.90
31369;DHT22;18004;48.416;10.066;2022-11-12T12:26:21;7.20;99.90
31369;DHT22;18004;48.416;10.066;2022-11-12T12:31:21;7.30;99.90
31369;DHT22;18004;48.416;10.066;2022-11-12T12:36:19;7.10;99.90
31369;DHT22;18004;48.416;10.066;2022-11-12T12:43:49;7.00;99.90
31369;DHT22;18004;48.416;10.066;2022-11-12T12:46:19;7.00;99.90
31369;DHT22;18004;48.416;10.066;2022-11-12T12:48:45;7.00;99.90
31369;DHT22;18004;48.416;10.066;2022-11-12T12:51:11;7.20;99.90
31369;DHT22;18004;48.416;10.066;2022-11-12T12:53:37;7.30;99.90
31369;DHT22;18004;48.416;10.066;2022-11-12T12:56:05;7.40;99.90
31369;DHT22;18004;48.416;10.066;2022-11-12T12:58:46;7.40;99.90
31369;DHT22;18004;48.416;10.066;2022-11-12T13:03:56;7.50;99.90
31369;DHT22;18004;48.416;10.066;2022-11-12T13:06:33;7.60;99.90
31369;DHT22;18004;48.416;10.066;2022-11-12T13:09:04;7.40;99.90
31369;DHT22;18004;48.416;10.066;2022-11-12T13:37:49;7.10;99.90
31369;DHT22;18004;48.416;10.066;2022-11-12T13:40:17;7.20;99.90
31369;DHT22;18004;48.416;10.066;2022-11-12T13:42:44;7.30;99.90
31369;DHT22;18004;48.416;10.066;2022-11-12T13:45:13;7.40;99.90
31369;DHT22;18004;48.416;10.066;2022-11-12T13:47:39;7.50;99.90
31369;DHT22;18004;48.416;10.066;2022-11-12T13:50:06;7.60;99.90
31369;DHT22;18004;48.416;10.066;2022-11-12T13:52:32;7.70;99.90
31369;DHT22;18004;48.416;10.066;2022-11-12T13:55:02;7.70;99.90
31369;DHT22;18004;48.416;10.066;2022-11-12T13:57:29;7.70;99.90
31369;DHT22;18004;48.416;10.066;2022-11-12T14:02:39;7.70;99.90
31369;DHT22;18004;48.416;10.066;2022-11-12T14:05:15;7.40;99.90
31369;DHT22;18004;48.416;10.066;2022-11-12T14:10:29;7.20;99.90
31369;DHT22;18004;48.416;10.066;2022-11-12T14:13:07;7.20;99.90
31369;DHT22;18004;48.416;10.066;2022-11-12T14:20:33;7.20;99.90
31369;DHT22;18004;48.416;10.066;2022-11-12T14:23:06;7.20;99.90
31369;DHT22;18004;48.416;10.066;2022-11-12T14:25:33;7.30;99.90
31369;DHT22;18004;48.416;10.066;2022-11-12T14:27:58;7.40;99.90
31369;DHT22;18004;48.416;10.066;2022-11-12T14:30:27;7.30;99.90
31369;DHT22;18004;48.416;10.066;2022-11-12T14:32:57;7.10;99.90
31369;DHT22;18004;48.416;10.066;2022-11-12T14:37:50;7.10;99.90
31369;DHT22;18004;48.416;10.066;2022-11-12T14:40:17;7.10;99.90
31369;DHT22;18004;48.416;10.066;2022-11-12T14:42:43;7.10;99.90
31369;DHT22;18004;48.416;10.066;2022-11-12T14:45:15;7.00;99.90
31369;DHT22;18004;48.416;10.066;2022-11-12T14:47:42;7.00;99.90
31369;DHT22;18004;48.416;10.066;2022-11-12T14:50:16;6.90;99.90
31369;DHT22;18004;48.416;10.066;2022-11-12T14:52:43;6.90;99.90
31369;DHT22;18004;48.416;10.066;2022-11-12T14:55:11;6.90;99.90
31369;DHT22;18004;48.416;10.066;2022-11-12T14:57:39;6.90;99.90
31369;DHT22;18004;48.416;10.066;2022-11-12T15:00:51;6.90;99.90
31369;DHT22;18004;48.416;10.066;2022-11-12T15:02:51;6.90;99.90
31369;DHT22;18004;48.416;10.066;2022-11-12T15:05:17;6.90;99.90
31369;DHT22;18004;48.416;10.066;2022-11-12T15:10:29;6.90;99.90
31369;DHT22;18004;48.416;10.066;2022-11-12T15:13:05;6.80;99.90
31369;DHT22;18004;48.416;10.066;2022-11-12T15:15:32;6.80;99.90
31369;DHT22;18004;48.416;10.066;2022-11-12T15:17:59;6.70;99.90
31369;DHT22;18004;48.416;10.066;2022-11-12T15:20:26;6.70;99.90
31369;DHT22;18004;48.416;10.066;2022-11-12T15:22:52;6.70;99.90
31369;DHT22;18004;48.416;10.066;2022-11-12T15:27:46;6.90;99.90
31369;DHT22;18004;48.416;10.066;2022-11-12T15:30:17;6.90;99.90
31369;DHT22;18004;48.416;10.066;2022-11-12T15:32:43;7.00;99.90
31369;DHT22;18004;48.416;10.066;2022-11-12T15:35:19;7.00;99.90
31369;DHT22;18004;48.416;10.066;2022-11-12T15:37:45;7.00;99.90
31369;DHT22;18004;48.416;10.066;2022-11-12T15:40:11;7.00;99.90
31369;DHT22;18004;48.416;10.066;2022-11-12T15:42:40;7.00;99.90
31369;DHT22;18004;48.416;10.066;2022-11-12T15:45:12;7.00;99.90
31369;DHT22;18004;48.416;10.066;2022-11-12T15:47:39;7.00;99.90
31369;DHT22;18004;48.416;10.066;2022-11-12T15:50:17;6.90;99.90
31369;DHT22;18004;48.416;10.066;2022-11-12T15:52:44;6.90;99.90
31369;DHT22;18004;48.416;10.066;2022-11-12T15:55:12;7.00;99.90
31369;DHT22;18004;48.416;10.066;2022-11-12T15:57:40;6.90;99.90
31369;DHT22;18004;48.416;10.066;2022-11-12T16:00:11;6.90;99.90
31369;DHT22;18004;48.416;10.066;2022-11-12T16:02:38;6.80;99.90
31369;DHT22;18004;48.416;10.066;2022-11-12T16:05:04;6.70;99.90
31369;DHT22;18004;48.416;10.066;2022-11-12T16:07:30;6.70;99.90
31369;DHT22;18004;48.416;10.066;2022-11-12T16:09:56;6.60;99.90
31369;DHT22;18004;48.416;10.066;2022-11-12T16:12:21;6.50;99.90
31369;DHT22;18004;48.416;10.066;2022-11-12T16:14:47;6.40;99.90
31369;DHT22;18004;48.416;10.066;2022-11-12T16:17:16;6.40;99.90
31369;DHT22;18004;48.416;10.066;2022-11-12T16:19:42;6.40;99.90
31369;DHT22;18004;48.416;10.066;2022-11-12T16:22:08;6.30;99.90
31369;DHT22;18004;48.416;10.066;2022-11-12T16:24:40;6.30;99.90
31369;DHT22;18004;48.416;10.066;2022-11-12T16:27:06;6.30;99.90
31369;DHT22;18004;48.416;10.066;2022-11-12T16:29:34;6.40;99.90
31369;DHT22;18004;48.416;10.066;2022-11-12T16:32:00;6.40;99.90
31369;DHT22;18004;48.416;10.066;2022-11-12T16:34:25;6.40;99.90
31369;DHT22;18004;48.416;10.066;2022-11-12T16:36:51;6.30;99.90
31369;DHT22;18004;48.416;10.066;2022-11-12T16:39:17;6.30;99.90
31369;DHT22;18004;48.416;10.066;2022-11-12T16:41:43;6.20;99.90
31369;DHT22;18004;48.416;10.066;2022-11-12T16:44:08;6.20;99.90
31369;DHT22;18004;48.416;10.066;2022-11-12T16:46:34;6.30;99.90
31369;DHT22;18004;48.416;10.066;2022-11-12T16:49:03;6.20;99.90
31369;DHT22;18004;48.416;10.066;2022-11-12T16:51:29;6.30;99.90
31369;DHT22;18004;48.416;10.066;2022-11-12T16:53:54;6.30;99.90
31369;DHT22;18004;48.416;10.066;2022-11-12T16:56:21;6.40;99.90
31369;DHT22;18004;48.416;10.066;2022-11-12T16:58:47;6.30;99.90
31369;DHT22;18004;48.416;10.066;2022-11-12T17:01:23;6.30;99.90
31369;DHT22;18004;48.416;10.066;2022-11-12T17:03:50;6.40;99.90
31369;DHT22;18004;48.416;10.066;2022-11-12T17:06:16;6.10;99.90
31369;DHT22;18004;48.416;10.066;2022-11-12T17:08:42;6.20;99.90
31369;DHT22;18004;48.416;10.066;2022-11-12T17:11:08;6.20;99.90
31369;DHT22;18004;48.416;10.066;2022-11-12T17:13:35;6.30;99.90
31369;DHT22;18004;48.416;10.066;2022-11-12T17:16:01;6.30;99.90
31369;DHT22;18004;48.416;10.066;2022-11-12T17:18:26;6.30;99.90
31369;DHT22;18004;48.416;10.066;2022-11-12T17:20:52;6.30;99.90
31369;DHT22;18004;48.416;10.066;2022-11-12T17:23:18;6.30;99.90
31369;DHT22;18004;48.416;10.066;2022-11-12T17:25:43;6.40;99.90
31369;DHT22;18004;48.416;10.066;2022-11-12T17:28:09;6.40;99.90